createdAt,value
2019-04-10T00:02:35.598Z,93.13
2019-04-10T00:07:31.275Z,93.70
2019-04-10T00:12:27.714Z,93.51
2019-04-10T00:17:22.996Z,94.27
2019-04-10T00:22:18.788Z,94.18
2019-04-10T00:27:14.625Z,94.51
2019-04-10T00:32:10.382Z,95.17
2019-04-10T00:37:19.917Z,95.36
2019-04-10T00:42:05.901Z,94.89
2019-04-10T00:47:02.427Z,94.98
2019-04-10T00:51:59.564Z,94.98
2019-04-10T00:56:54.609Z,94.60
2019-04-10T01:01:50.418Z,94.89
2019-04-10T01:06:46.320Z,95.36
2019-04-10T01:11:41.727Z,94.13
2019-04-10T01:16:37.724Z,94.79
2019-04-10T01:21:34.577Z,95.12
2019-04-10T01:26:29.725Z,95.88
2019-04-10T01:31:26.747Z,96.08
2019-04-10T01:36:22.761Z,96.08
2019-04-10T01:41:19.428Z,95.69
2019-04-10T01:46:14.575Z,95.12
2019-04-10T01:51:11.189Z,95.03
2019-04-10T01:56:20.410Z,94.65
2019-04-10T02:01:05.508Z,94.13
2019-04-10T02:06:01.087Z,93.46
2019-04-10T02:10:58.644Z,93.18
2019-04-10T02:15:54.495Z,93.46
2019-04-10T02:20:51.531Z,93.27
2019-04-10T02:25:47.236Z,94.13
2019-04-10T02:30:43.892Z,93.27
2019-04-10T02:35:40.028Z,93.56
2019-04-10T02:40:37.279Z,93.37
2019-04-10T02:45:32.691Z,93.46
2019-04-10T02:50:29.396Z,93.37
2019-04-10T02:55:25.129Z,93.84
2019-04-10T03:00:22.342Z,93.56
2019-04-10T03:05:19.474Z,93.65
2019-04-10T03:10:25.177Z,93.08
2019-04-10T03:15:17.003Z,94.08
2019-04-10T03:20:12.046Z,93.80
2019-04-10T03:25:08.724Z,94.46
2019-04-10T03:30:05.218Z,94.74
2019-04-10T03:35:02.861Z,94.46
2019-04-10T03:39:57.423Z,94.18
2019-04-10T03:44:53.015Z,94.65
2019-04-10T03:49:49.904Z,94.46
2019-04-10T03:54:46.052Z,94.56
2019-04-10T03:59:42.064Z,95.50
2019-04-10T04:04:37.744Z,96.55
2019-04-10T04:09:33.635Z,97.16
2019-04-10T04:14:30.494Z,98.01
2019-04-10T04:19:26.111Z,98.77
2019-04-10T04:24:23.552Z,99.05
2019-04-10T04:29:20.555Z,99.43
2019-04-10T04:34:15.816Z,99.62
2019-04-10T04:39:21.166Z,99.99
2019-04-10T04:44:11.011Z,99.99
2019-04-10T04:49:07.919Z,99.99
2019-04-10T04:54:04.500Z,99.99
2019-04-10T04:59:01.453Z,99.99
2019-04-10T05:03:58.241Z,99.99
2019-04-10T05:08:54.717Z,99.99
2019-04-10T05:13:50.905Z,99.99
2019-04-10T05:18:47.660Z,99.99
2019-04-10T05:23:44.978Z,99.99
2019-04-10T05:28:40.338Z,99.99
2019-04-10T05:33:37.075Z,99.99
2019-04-10T05:38:33.471Z,99.99
2019-04-10T05:43:28.892Z,98.96
2019-04-10T05:48:25.451Z,99.15
2019-04-10T05:53:22.534Z,98.01
2019-04-10T05:58:18.140Z,98.86
2019-04-10T06:03:14.554Z,98.20
2019-04-10T06:08:11.833Z,97.87
2019-04-10T06:13:07.284Z,96.92
2019-04-10T06:18:04.970Z,96.07
2019-04-10T06:23:01.255Z,94.93
2019-04-10T06:27:56.928Z,95.69
2019-04-10T06:32:53.702Z,95.79
2019-04-10T06:37:50.450Z,95.12
2019-04-10T06:42:51.594Z,94.70
2019-04-10T06:47:46.614Z,94.79
2019-04-10T06:52:42.990Z,94.23
2019-04-10T06:57:46.904Z,94.13
2019-04-10T07:02:38.874Z,93.75
2019-04-10T07:07:45.306Z,92.90
2019-04-10T07:12:35.883Z,92.28
2019-04-10T07:17:35.686Z,92.09
2019-04-10T07:22:31.130Z,91.80
2019-04-10T07:27:26.429Z,90.67
2019-04-10T07:32:24.260Z,90.10
2019-04-10T07:37:21.654Z,90.19
2019-04-10T07:42:26.854Z,89.39
2019-04-10T07:47:20.567Z,89.20
2019-04-10T07:52:15.535Z,88.81
2019-04-10T07:57:11.829Z,87.24
2019-04-10T08:02:09.789Z,85.53
2019-04-10T08:07:05.912Z,86.01
2019-04-10T08:12:03.652Z,84.63
2019-04-10T08:16:59.949Z,81.63
2019-04-10T08:21:57.122Z,80.96
2019-04-10T08:26:53.197Z,80.96
2019-04-10T08:36:51.102Z,81.92
2019-04-10T08:41:48.123Z,82.01
2019-04-10T08:46:44.166Z,82.87
2019-04-10T08:51:39.661Z,81.92
2019-04-10T08:56:36.412Z,83.19
2019-04-10T09:01:33.414Z,82.62
2019-04-10T09:06:30.115Z,80.00
2019-04-10T09:11:28.399Z,80.05
2019-04-10T09:16:24.713Z,80.82
2019-04-10T09:21:21.526Z,79.43
2019-04-10T09:26:17.441Z,79.01
2019-04-10T09:31:13.568Z,77.81
2019-04-10T09:36:11.166Z,77.77
2019-04-10T09:41:07.778Z,77.91
2019-04-10T09:46:04.273Z,76.20
2019-04-10T09:51:00.649Z,75.57
2019-04-10T09:55:56.796Z,73.76
2019-04-10T10:00:52.832Z,74.43
2019-04-10T10:05:48.604Z,73.95
2019-04-10T10:10:45.064Z,73.10
2019-04-10T10:15:41.731Z,74.33
2019-04-10T10:20:38.187Z,74.08
2019-04-10T10:25:37.475Z,72.02
2019-04-10T10:30:33.724Z,71.28
2019-04-10T10:35:31.330Z,72.08
2019-04-10T10:40:29.754Z,71.03
2019-04-10T10:45:25.515Z,71.80
2019-04-10T10:50:23.565Z,70.21
2019-04-10T10:55:21.028Z,66.44
2019-04-10T11:00:17.133Z,68.30
2019-04-10T11:05:13.091Z,68.34
2019-04-10T11:10:09.485Z,67.35
2019-04-10T11:15:05.913Z,67.77
2019-04-10T11:20:02.767Z,67.39
2019-04-10T11:25:00.202Z,64.65
2019-04-10T11:29:55.079Z,68.50
2019-04-10T11:34:52.885Z,67.35
2019-04-10T11:39:50.740Z,67.00
2019-04-10T11:44:49.262Z,66.56
2019-04-10T11:49:47.141Z,67.29
2019-04-10T11:54:44.921Z,68.50
2019-04-10T11:59:43.955Z,67.74
2019-04-10T12:04:49.212Z,67.83
2019-04-10T12:14:37.408Z,69.17
2019-04-10T12:19:33.267Z,66.15
2019-04-10T12:24:30.110Z,64.75
2019-04-10T12:29:26.728Z,64.87
2019-04-10T12:34:22.329Z,67.80
2019-04-10T12:39:18.364Z,66.53
2019-04-10T12:44:15.850Z,63.96
2019-04-10T12:49:11.604Z,62.62
2019-04-10T12:54:07.944Z,65.45
2019-04-10T12:59:03.438Z,66.21
2019-04-10T13:04:00.125Z,63.64
2019-04-10T13:09:03.278Z,63.96
2019-04-10T13:13:55.568Z,62.27
2019-04-10T13:18:52.347Z,63.57
2019-04-10T13:23:47.594Z,61.86
2019-04-10T13:28:43.955Z,62.15
2019-04-10T13:33:40.628Z,61.48
2019-04-10T13:38:36.942Z,61.67
2019-04-10T13:43:33.884Z,63.57
2019-04-10T13:48:29.702Z,61.48
2019-04-10T13:53:25.936Z,62.24
2019-04-10T13:58:21.409Z,61.38
2019-04-10T14:03:18.401Z,60.62
2019-04-10T14:08:14.678Z,59.86
2019-04-10T14:13:11.599Z,60.52
2019-04-10T14:18:08.258Z,60.46
2019-04-10T14:23:04.713Z,59.00
2019-04-10T14:28:00.580Z,59.86
2019-04-10T14:32:56.635Z,61.19
2019-04-10T14:37:52.510Z,61.48
2019-04-10T14:42:49.499Z,61.19
2019-04-10T14:47:44.536Z,62.12
2019-04-10T14:52:41.140Z,61.35
2019-04-10T14:57:37.078Z,60.59
2019-04-10T15:02:34.724Z,59.16
2019-04-10T15:07:31.050Z,60.02
2019-04-10T15:12:26.503Z,60.30
2019-04-10T15:17:23.113Z,59.16
2019-04-10T15:22:19.974Z,59.54
2019-04-10T15:27:15.471Z,60.05
2019-04-10T15:32:12.684Z,59.09
2019-04-10T15:37:08.858Z,58.02
2019-04-10T15:42:04.258Z,59.16
2019-04-10T15:47:13.658Z,57.26
2019-04-10T15:52:05.714Z,57.64
2019-04-10T15:57:02.653Z,57.26
2019-04-10T16:01:59.404Z,56.87
2019-04-10T16:06:56.050Z,55.92
2019-04-10T16:11:52.555Z,56.87
2019-04-10T16:16:49.322Z,56.02
2019-04-10T16:21:45.796Z,56.11
2019-04-10T16:26:45.411Z,55.63
2019-04-10T16:31:40.260Z,56.68
2019-04-10T16:36:37.422Z,55.26
2019-04-10T16:41:33.649Z,55.07
2019-04-10T16:46:29.904Z,55.44
2019-04-10T16:51:25.977Z,55.90
2019-04-10T16:56:21.303Z,55.99
2019-04-10T17:01:16.729Z,54.66
2019-04-10T17:06:12.953Z,54.27
2019-04-10T17:11:09.177Z,54.66
2019-04-10T17:16:05.892Z,55.90
2019-04-10T17:21:02.564Z,55.90
2019-04-10T17:25:58.279Z,55.42
2019-04-10T17:30:54.005Z,57.13
2019-04-10T17:35:49.649Z,59.77
2019-04-10T17:40:50.598Z,60.63
2019-04-10T17:45:44.825Z,61.58
2019-04-10T17:50:41.493Z,62.15
2019-04-10T17:55:37.726Z,62.81
2019-04-10T18:00:33.785Z,62.72
2019-04-10T18:05:30.881Z,63.17
2019-04-10T18:10:30.449Z,62.59
2019-04-10T18:15:26.063Z,63.92
2019-04-10T18:20:22.037Z,64.40
2019-04-10T18:25:20.083Z,64.11
2019-04-10T18:30:16.175Z,64.97
2019-04-10T18:35:12.831Z,65.03
2019-04-10T18:40:08.104Z,65.45
2019-04-10T18:45:03.768Z,65.32
2019-04-10T18:50:00.950Z,66.08
2019-04-10T18:54:58.398Z,65.99
2019-04-10T18:59:53.367Z,65.89
2019-04-10T19:04:49.555Z,66.65
2019-04-10T19:09:45.613Z,66.55
2019-04-10T19:14:42.559Z,66.71
2019-04-10T19:19:41.798Z,66.52
2019-04-10T19:24:38.261Z,66.33
2019-04-10T19:29:35.280Z,67.38
2019-04-10T19:34:31.721Z,67.38
2019-04-10T19:39:27.044Z,67.85
2019-04-10T19:44:23.487Z,67.94
2019-04-10T19:49:19.729Z,67.85
2019-04-10T19:54:16.059Z,67.72
2019-04-10T19:59:14.526Z,67.72
2019-04-10T20:04:12.433Z,67.53
2019-04-10T20:09:12.474Z,67.44
2019-04-10T20:14:08.388Z,68.19
2019-04-10T20:19:07.625Z,68.29
2019-04-10T20:24:06.214Z,68.48
2019-04-10T20:29:02.396Z,68.77
2019-04-10T20:33:59.063Z,69.15
2019-04-10T20:38:57.342Z,69.34
2019-04-10T20:43:57.989Z,69.11
2019-04-10T20:49:00.589Z,69.59
2019-04-10T20:54:00.783Z,70.06
2019-04-10T20:58:55.735Z,70.63
2019-04-10T21:03:59.540Z,71.96
2019-04-10T21:08:58.790Z,72.06
2019-04-10T21:14:05.437Z,72.34
2019-04-10T21:19:06.742Z,73.96
2019-04-10T21:24:04.917Z,74.15
2019-04-10T21:29:00.755Z,74.24
2019-04-10T21:33:57.055Z,75.38
2019-04-10T21:38:58.463Z,75.47
2019-04-10T21:43:52.358Z,76.57
2019-04-10T21:48:48.830Z,77.33
2019-04-10T21:53:45.240Z,78.09
2019-04-10T21:58:41.724Z,78.85
2019-04-10T22:03:37.976Z,79.23
2019-04-10T22:08:33.641Z,79.61
2019-04-10T22:13:29.975Z,79.99
2019-04-10T22:18:25.748Z,80.65
2019-04-10T22:23:22.366Z,80.08
2019-04-10T22:28:17.682Z,79.52
2019-04-10T22:33:14.055Z,80.27
2019-04-10T22:38:09.425Z,79.95
2019-04-10T22:43:05.868Z,79.95
2019-04-10T22:48:01.362Z,80.04
2019-04-10T22:52:57.076Z,80.14
2019-04-10T22:57:54.746Z,79.76
2019-04-10T23:02:50.599Z,81.37
2019-04-10T23:07:47.268Z,80.62
2019-04-10T23:12:52.258Z,81.27
2019-04-10T23:17:43.133Z,81.56
2019-04-10T23:22:38.555Z,82.51
2019-04-10T23:27:35.636Z,82.09
2019-04-10T23:32:31.183Z,82.37
2019-04-10T23:37:26.812Z,82.66
2019-04-10T23:42:23.293Z,82.66
2019-04-10T23:47:22.570Z,83.04
2019-04-10T23:52:18.313Z,83.98
2019-04-10T23:57:13.688Z,83.80
